Frostburg, MD

9:10 AM EST on December 06, 2016 (GMT -0500)
Frost Avenue | | Change Station
Active Advisory: Winter Weather Advisory

Elev 2100 ft 39.66 °N, 78.93 °W | Updated 1 second ago

Overcast
Overcast
32.5 °F
Feels Like 32 °F
N
1.1
Wind Variable Wind from SE
Gusts 2.5 mph

Today
High -- | Low -- °F
--% Chance of Precip.
Yesterday
High -- | Low -- °F
Precip. -- in
Pressure 29.85 in
Visibility 1.8 miles
Clouds Overcast 300 ft
Windchill 32 °F
Dew Point 28 °F
Humidity 83%
Rainfall 0.04 in
Snow Depth Not available.
7:22 AM 4:51 PM
Waxing Crescent, 42% visible
METAR K2G4 061400Z AUTO 12015G28KT 1 3/4SM BR OVC003 M01/M01 A2985 RMK AO1
Pressure 29.85 in
Visibility 1.8 miles
Clouds Overcast 300 ft
Windchill 32 °F
Dew Point 28 °F
Humidity 83%
Rainfall 0.04 in
Snow Depth Not available.
7:22 AM 4:51 PM
Waxing Crescent, 42% visible
METAR K2G4 061400Z AUTO 12015G28KT 1 3/4SM BR OVC003 M01/M01 A2985 RMK AO1

10-Day Weather Forecast

Almanac

Astronomy

Dec. 06, 2016 Rise Set
Actual Time
Civil Twilight
Nautical Twilight
Astronomical Twilight
Moon
Length of Visible Light
Length of Day
Tomorrow will be .
, % of the Moon is Illuminated

Today's Extremes

State Highs State Lows

Community

WunderPhotos

Upload Photos

1,955,949 photos uploaded!

WunderBlog® & News

Nearby

Air Quality

  Air Quality AQ Index Pollutant
Not available.

Snow Depth

Station Depth Elevation

Earthquake Activity

City Distance Mag. Time & Date
Minimum magnitude displayed is 2.5.

Coastal Water Temperatures

Place Temperature

Stations

Nearby Weather Stations

Station Location Temp. Windchill Dew Point Humidity Wind Precip. Elev Updated Type
                   

Watches & Warnings

Winter Weather Advisory
Issued: 6:57 AM EST Dec. 6, 2016 – National Weather Service

... Winter Weather Advisory remains in effect until 7 PM EST this
evening...

* precipitation type... snow... sleet and freezing rain.

* Accumulations... a coating of snow and sleet... and around one-
tenth of an inch of ice from freezing rain.

* Timing... precipitation will overspread the area through 10 am.
Precipitation will likely begin as mix of snow... sleet and
freezing rain before changing to all freezing rain by early this
afternoon.

* Impacts... untreated roads and sidewalks will become slick and
hazardous due to ice.

* Winds... southeast 10 to 15 mph with gusts up to 20 mph.

* Temperatures... lower 30s.

Precautionary/preparedness actions...

A Winter Weather Advisory means that periods of snow... sleet...
and freezing rain will cause travel difficulties. Be prepared for
slippery roads and limited visibilities... and use caution while
driving.